Time;durP1;ratioP1;P1;durP2;ratioP2;P2;SDS_P1;SDS_P2;PMS_P1;PMS_P2;Temp;Humidity;BMP_temperature;BMP_pressure;BME280_temperature;BME280_humidity;BME280_pressure;Samples;Min_cycle;Max_cycle;Signal;HPM_P1;HPM_P2
2023/01/05 00:00:11;;;;;;;9.90;8.10;;;;;;;27.07;22.56;101459.45;101608;1324;69247;-88
2023/01/05 00:02:36;;;;;;;8.90;8.00;;;;;;;27.07;22.58;101457.17;101419;1330;69111;-89
2023/01/05 00:05:02;;;;;;;9.20;7.70;;;;;;;27.07;22.61;101454.64;101548;1325;69231;-89
2023/01/05 00:07:27;;;;;;;12.00;8.10;;;;;;;27.07;22.37;101452.61;101599;1330;69175;-89
2023/01/05 00:09:53;;;;;;;11.80;8.30;;;;;;;27.07;22.53;101449.48;101556;1326;67442;-89
2023/01/05 00:23:15;;;;;;;11.40;7.90;;;;;;;27.05;22.64;101448.77;101468;1329;69155;-91
2023/01/05 00:25:41;;;;;;;14.50;8.00;;;;;;;27.06;22.39;101447.21;101539;1327;69195;-88
2023/01/05 00:28:06;;;;;;;9.90;7.90;;;;;;;27.06;22.49;101442.26;101282;1332;69253;-89
2023/01/05 00:30:39;;;;;;;9.20;7.70;;;;;;;27.06;22.52;101438.43;101600;1330;69302;-89
2023/01/05 00:33:07;;;;;;;9.40;7.60;;;;;;;27.05;22.54;101440.54;101671;1326;73488;-89
2023/01/05 00:35:33;;;;;;;8.70;7.50;;;;;;;27.06;22.51;101439.11;101586;1330;69175;-89
2023/01/05 00:37:58;;;;;;;9.60;7.70;;;;;;;27.06;22.57;101435.89;101576;1330;69300;-89
2023/01/05 00:40:24;;;;;;;8.90;7.50;;;;;;;27.06;22.46;101430.89;101578;1317;69244;-89
2023/01/05 00:42:49;;;;;;;9.10;7.50;;;;;;;27.06;22.32;101422.83;101592;1326;69222;-89
2023/01/05 00:45:16;;;;;;;8.50;7.30;;;;;;;27.06;22.36;101424.95;101343;1330;69272;-89
2023/01/05 00:47:41;;;;;;;8.50;7.30;;;;;;;27.05;22.37;101422.89;101653;1330;69135;-89
2023/01/05 00:50:08;;;;;;;9.00;7.70;;;;;;;27.06;22.48;101416.95;101472;1330;69192;-91
2023/01/05 00:52:33;;;;;;;9.30;7.20;;;;;;;27.05;22.43;101420.46;101355;1330;69107;-89
2023/01/05 00:54:59;;;;;;;8.60;7.20;;;;;;;27.05;22.44;101417.36;101585;1333;69183;-89
2023/01/05 00:57:24;;;;;;;8.70;7.20;;;;;;;27.05;22.24;101416.22;101422;1326;69218;-89
2023/01/05 00:59:50;;;;;;;9.30;7.20;;;;;;;27.06;22.39;101404.90;101576;1329;69219;-89
2023/01/05 01:02:16;;;;;;;9.70;7.90;;;;;;;27.06;22.45;101399.64;101578;1330;69282;-90
2023/01/05 01:04:41;;;;;;;8.50;7.60;;;;;;;27.06;22.43;101394.00;101493;1330;69267;-89
2023/01/05 01:07:07;;;;;;;8.70;7.50;;;;;;;27.06;22.36;101394.53;101336;1329;69345;-89
2023/01/05 01:09:32;;;;;;;8.80;7.70;;;;;;;27.05;22.32;101389.83;101539;1330;69290;-89
2023/01/05 01:11:58;;;;;;;8.80;7.60;;;;;;;27.06;22.41;101383.58;101619;1331;69199;-89
2023/01/05 01:14:24;;;;;;;10.10;7.90;;;;;;;27.06;22.45;101377.64;101581;1326;73502;-89
2023/01/05 01:16:49;;;;;;;9.10;7.40;;;;;;;27.06;22.15;101374.95;101316;1333;69221;-89
2023/01/05 01:19:17;;;;;;;8.20;7.20;;;;;;;27.06;22.11;101370.55;101531;1333;69277;-88
2023/01/05 01:21:43;;;;;;;9.20;7.30;;;;;;;27.06;22.28;101369.11;101566;1331;69205;-89
2023/01/05 01:24:11;;;;;;;9.80;7.40;;;;;;;27.06;22.34;101364.58;101622;1330;69323;-89
2023/01/05 01:26:37;;;;;;;10.20;7.70;;;;;;;27.06;22.21;101357.48;101551;1325;73787;-89
2023/01/05 01:29:02;;;;;;;9.40;7.50;;;;;;;27.06;22.23;101351.81;101463;1330;69160;-92
2023/01/05 01:31:28;;;;;;;8.60;7.20;;;;;;;27.06;22.21;101345.15;101515;1330;69258;-88
2023/01/05 01:33:53;;;;;;;8.00;7.20;;;;;;;27.06;22.19;101335.80;101590;1326;68113;-89
2023/01/05 01:36:19;;;;;;;10.40;7.60;;;;;;;27.07;22.39;101330.58;101516;1332;69287;-89
2023/01/05 01:38:44;;;;;;;9.50;7.30;;;;;;;27.06;22.37;101330.00;101461;1332;69244;-89
2023/01/05 01:41:10;;;;;;;8.80;7.50;;;;;;;27.06;22.18;101323.60;101601;1331;67295;-89
2023/01/05 01:43:39;;;;;;;9.70;7.40;;;;;;;27.06;22.24;101322.16;101492;1323;69132;-89
2023/01/05 01:46:05;;;;;;;9.20;7.10;;;;;;;27.06;22.27;101312.70;101316;1322;69209;-89
2023/01/05 01:48:30;;;;;;;8.00;7.00;;;;;;;27.06;22.30;101307.80;101540;1333;69277;-89
2023/01/05 01:50:56;;;;;;;9.30;7.60;;;;;;;27.07;22.23;101306.44;101661;1333;69204;-89
2023/01/05 01:53:27;;;;;;;7.50;6.70;;;;;;;27.06;22.26;101292.61;101591;1332;69203;-89
2023/01/05 01:55:53;;;;;;;8.40;7.20;;;;;;;27.06;22.39;101285.13;101494;1331;69181;-89
2023/01/05 01:58:18;;;;;;;7.40;6.60;;;;;;;27.07;22.42;101293.42;101608;1330;69227;-89
2023/01/05 02:00:44;;;;;;;8.80;7.00;;;;;;;27.07;22.28;101290.13;101523;1331;67808;-89
2023/01/05 02:03:09;;;;;;;8.10;6.80;;;;;;;27.07;22.21;101278.34;101655;1333;69292;-90
2023/01/05 02:05:36;;;;;;;9.40;7.20;;;;;;;27.08;22.28;101273.89;101683;1331;69158;-89
2023/01/05 02:08:03;;;;;;;7.80;6.90;;;;;;;27.08;22.39;101266.77;101516;1325;69076;-90
2023/01/05 02:10:34;;;;;;;8.60;6.90;;;;;;;27.07;22.40;101262.21;101473;1330;69628;-89
2023/01/05 02:13:11;;;;;;;9.00;6.90;;;;;;;27.08;22.31;101258.45;101466;1331;67493;-89
2023/01/05 02:15:55;;;;;;;7.80;6.70;;;;;;;27.08;22.21;101257.88;101515;1333;69189;-89
2023/01/05 02:18:30;;;;;;;8.30;7.20;;;;;;;27.08;22.23;101252.77;101446;1330;69139;-89
2023/01/05 02:21:11;;;;;;;8.90;6.90;;;;;;;27.08;22.08;101245.85;101369;1329;69121;-89
2023/01/05 02:24:10;;;;;;;7.90;6.90;;;;;;;27.07;22.29;101242.29;101587;1324;73549;-89
2023/01/05 02:26:55;;;;;;;8.00;6.80;;;;;;;27.07;22.39;101240.17;101376;1329;68739;-89
2023/01/05 02:29:33;;;;;;;7.90;6.60;;;;;;;27.07;22.23;101239.91;101305;1327;69179;-89
2023/01/05 02:32:08;;;;;;;8.30;6.70;;;;;;;27.08;22.14;101233.82;101423;1329;68890;-90
2023/01/05 02:34:43;;;;;;;7.80;6.50;;;;;;;27.08;22.05;101226.63;101219;1329;69098;-89
2023/01/05 02:37:14;;;;;;;8.10;7.20;;;;;;;27.08;22.26;101221.06;101451;1326;74704;-89
2023/01/05 02:39:43;;;;;;;8.40;6.70;;;;;;;27.08;22.38;101212.69;101379;1333;69302;-89
2023/01/05 02:42:13;;;;;;;7.60;6.50;;;;;;;27.08;22.29;101204.42;101487;1331;69158;-89
2023/01/05 02:44:39;;;;;;;8.70;6.50;;;;;;;27.07;22.35;101198.70;101366;1330;411044;-89
2023/01/05 02:47:07;;;;;;;8.30;6.70;;;;;;;27.07;22.05;101190.06;101719;1329;69223;-90
2023/01/05 02:49:36;;;;;;;8.00;6.20;;;;;;;27.07;22.20;101185.52;103332;1323;73529;-90
2023/01/05 02:52:02;;;;;;;7.60;6.50;;;;;;;27.08;22.29;101182.84;103322;1319;66683;-90
2023/01/05 02:54:46;;;;;;;10.10;7.20;;;;;;;27.08;22.31;101186.48;103088;1318;67893;-90
2023/01/05 02:57:15;;;;;;;9.10;6.90;;;;;;;27.09;22.31;101184.72;101695;1333;69262;-89
2023/01/05 02:59:43;;;;;;;7.00;6.00;;;;;;;27.10;22.17;101178.55;101582;1331;69054;-89
2023/01/05 03:02:11;;;;;;;7.80;6.40;;;;;;;27.10;22.21;101170.48;101531;1330;74391;-89
2023/01/05 03:04:54;;;;;;;7.80;6.20;;;;;;;27.11;22.09;101166.41;101555;1333;69226;-91
2023/01/05 03:07:23;;;;;;;8.10;6.70;;;;;;;27.11;22.06;101169.34;101737;1333;66938;-89
2023/01/05 03:09:48;;;;;;;9.60;6.70;;;;;;;27.12;22.08;101175.49;102355;1322;67662;-89
2023/01/05 03:15:11;;;;;;;7.00;6.10;;;;;;;27.12;22.28;101181.48;103486;1316;73520;-90
2023/01/05 03:17:43;;;;;;;8.00;6.40;;;;;;;27.13;22.43;101185.96;102850;1322;66761;-89
2023/01/05 03:20:11;;;;;;;8.40;6.50;;;;;;;27.13;22.28;101181.77;102053;1330;69081;-90
2023/01/05 03:36:51;;;;;;;7.30;5.80;;;;;;;27.13;22.12;101168.39;101447;1332;69218;-89
2023/01/05 03:39:16;;;;;;;8.10;6.60;;;;;;;27.13;22.08;101172.05;101555;1333;69123;-89
2023/01/05 03:41:42;;;;;;;8.90;6.70;;;;;;;27.13;22.15;101175.33;101503;1330;69303;-89
2023/01/05 03:44:07;;;;;;;8.40;6.80;;;;;;;27.12;22.10;101172.85;101512;1328;69302;-89
2023/01/05 03:46:33;;;;;;;7.60;6.70;;;;;;;27.12;21.98;101171.14;101426;1330;69286;-93
2023/01/05 03:48:58;;;;;;;8.80;7.10;;;;;;;27.12;22.05;101162.84;101534;1333;69184;-89
2023/01/05 03:51:24;;;;;;;8.50;7.30;;;;;;;27.12;22.10;101155.60;101588;1331;69218;-89
2023/01/05 03:53:49;;;;;;;7.90;6.90;;;;;;;27.11;22.09;101151.12;101529;1334;69235;-89
2023/01/05 03:56:15;;;;;;;10.30;7.90;;;;;;;27.11;22.03;101146.11;101482;1332;67829;-89
2023/01/05 03:58:40;;;;;;;8.70;7.10;;;;;;;27.11;22.09;101145.17;101418;1329;66865;-90
2023/01/05 04:01:06;;;;;;;9.00;7.50;;;;;;;27.11;22.11;101142.64;101341;1332;74547;-89
2023/01/05 04:03:32;;;;;;;10.20;7.80;;;;;;;27.11;22.03;101145.59;101491;1324;69567;-89
2023/01/05 04:05:57;;;;;;;8.60;7.70;;;;;;;27.11;22.12;101153.24;101461;1334;69215;-89
2023/01/05 04:08:23;;;;;;;18.00;8.70;;;;;;;27.10;21.98;101148.70;101493;1331;69360;-89
2023/01/05 04:10:51;;;;;;;19.30;8.80;;;;;;;27.08;21.95;101151.59;101609;1330;69166;-89
2023/01/05 04:13:17;;;;;;;13.10;8.10;;;;;;;27.07;21.90;101158.02;101485;1327;69229;-89
2023/01/05 04:15:42;;;;;;;12.00;8.30;;;;;;;27.07;21.97;101151.25;101555;1332;69165;-89
2023/01/05 04:18:07;;;;;;;16.50;9.40;;;;;;;27.08;22.18;101146.33;101685;1322;69111;-89
2023/01/05 04:20:33;;;;;;;34.50;10.40;;;;;;;27.06;22.30;101135.52;101602;1334;69266;-89
2023/01/05 04:22:58;;;;;;;75.10;13.30;;;;;;;27.01;22.58;101140.89;101658;1332;69219;-89
2023/01/05 04:25:24;;;;;;;80.70;13.80;;;;;;;26.97;22.53;101137.12;101546;1336;69147;-90
2023/01/05 04:27:49;;;;;;;89.10;14.00;;;;;;;26.96;22.38;101135.92;101705;1336;69110;-89
2023/01/05 04:30:15;;;;;;;97.00;14.90;;;;;;;26.93;22.45;101129.85;101681;1333;69218;-89
2023/01/05 04:32:40;;;;;;;78.30;12.40;;;;;;;26.92;22.64;101122.55;101723;1333;68992;-89
2023/01/05 04:35:06;;;;;;;64.30;12.30;;;;;;;26.90;22.84;101118.39;101697;1331;69294;-89
2023/01/05 04:37:32;;;;;;;56.40;10.80;;;;;;;26.89;23.23;101115.30;101724;1329;69278;-90
2023/01/05 04:39:57;;;;;;;38.20;10.50;;;;;;;26.87;23.64;101114.77;101506;1324;69169;-89
2023/01/05 04:42:23;;;;;;;39.00;9.90;;;;;;;26.83;23.94;101107.80;101657;1327;69171;-89
2023/01/05 04:44:49;;;;;;;28.10;9.10;;;;;;;26.78;24.28;101102.61;101599;1324;69144;-89
2023/01/05 04:47:15;;;;;;;24.30;9.00;;;;;;;26.74;24.22;101113.48;101602;1336;69172;-89
2023/01/05 04:49:40;;;;;;;14.10;8.30;;;;;;;26.68;24.19;101112.73;101703;1329;69286;-89
2023/01/05 04:52:06;;;;;;;14.10;8.20;;;;;;;26.61;24.15;101109.77;101534;1332;67744;-89
2023/01/05 04:54:32;;;;;;;14.90;7.70;;;;;;;26.56;24.06;101107.38;101658;1332;69058;-89
2023/01/05 04:56:57;;;;;;;15.90;7.60;;;;;;;26.53;23.84;101098.21;101624;1330;69322;-90
2023/01/05 04:59:23;;;;;;;14.10;7.50;;;;;;;26.54;23.48;101096.04;101739;1332;69231;-90
2023/01/05 05:01:48;;;;;;;11.60;7.40;;;;;;;26.55;23.40;101093.55;101772;1332;69267;-89
2023/01/05 05:04:14;;;;;;;11.70;7.30;;;;;;;26.58;23.20;101087.21;101568;1334;69117;-92
2023/01/05 05:06:39;;;;;;;12.40;7.20;;;;;;;26.62;23.25;101089.38;101551;1330;69306;-89
2023/01/05 05:09:05;;;;;;;9.40;7.30;;;;;;;26.64;22.96;101086.72;101424;1325;69174;-89
2023/01/05 05:11:33;;;;;;;13.40;7.50;;;;;;;26.66;23.05;101082.46;101690;1333;69143;-89
2023/01/05 05:13:59;;;;;;;10.30;7.20;;;;;;;26.68;22.83;101076.03;101395;1329;69316;-89
2023/01/05 05:16:28;;;;;;;9.60;6.80;;;;;;;26.70;22.60;101073.63;101783;1307;69245;-87
2023/01/05 05:18:54;;;;;;;9.10;7.00;;;;;;;26.72;22.70;101068.39;101589;1325;69150;-89
2023/01/05 05:21:19;;;;;;;8.70;6.60;;;;;;;26.74;22.73;101064.02;101799;1309;69215;-90
2023/01/05 05:23:45;;;;;;;11.00;7.30;;;;;;;26.75;22.63;101060.95;101365;1328;69025;-90
2023/01/05 05:26:10;;;;;;;11.20;6.50;;;;;;;26.76;22.49;101063.16;101608;1320;67748;-90
2023/01/05 05:28:36;;;;;;;11.30;6.50;;;;;;;26.77;22.47;101064.99;101599;1331;69341;-90
2023/01/05 05:31:01;;;;;;;11.60;7.10;;;;;;;26.79;22.32;101061.48;101273;1328;69227;-90
2023/01/05 05:33:27;;;;;;;10.40;6.80;;;;;;;26.80;22.36;101068.02;101907;1300;69195;-89
2023/01/05 05:35:56;;;;;;;8.90;7.20;;;;;;;26.81;22.34;101068.58;101338;1292;516235;-90
2023/01/05 05:38:22;;;;;;;9.40;7.10;;;;;;;26.82;22.19;101065.73;101865;1332;69145;-90
2023/01/05 05:40:48;;;;;;;9.20;6.90;;;;;;;26.84;22.27;101058.58;101950;1308;69200;-88
2023/01/05 05:43:18;;;;;;;9.70;7.20;;;;;;;26.86;22.18;101055.91;101778;1307;69230;31
2023/01/05 05:45:44;;;;;;;9.00;7.10;;;;;;;26.88;22.07;101047.89;101628;1327;73868;-90
2023/01/05 05:48:10;;;;;;;11.90;7.80;;;;;;;26.90;22.25;101038.71;101938;1313;69187;-89
2023/01/05 05:50:35;;;;;;;10.90;7.60;;;;;;;26.91;22.25;101033.73;101704;1324;69094;-89
2023/01/05 05:53:01;;;;;;;12.20;7.90;;;;;;;26.93;22.16;101029.80;101719;1326;69227;-89
2023/01/05 05:55:26;;;;;;;10.70;7.40;;;;;;;26.95;22.39;101027.95;101907;1323;69084;-89
2023/01/05 05:57:52;;;;;;;12.10;7.80;;;;;;;26.96;22.14;101019.97;101575;1330;69196;-89
2023/01/05 06:00:17;;;;;;;10.60;7.30;;;;;;;26.98;22.14;101013.33;101810;1333;69595;-89
2023/01/05 06:02:43;;;;;;;11.80;7.50;;;;;;;26.99;22.28;101004.33;101712;1333;69222;-89
2023/01/05 06:05:08;;;;;;;14.90;7.70;;;;;;;27.00;22.19;100999.05;101787;1325;69208;-89
2023/01/05 06:07:34;;;;;;;19.30;10.10;;;;;;;27.00;22.34;100995.58;101658;1327;69187;-89
2023/01/05 06:09:59;;;;;;;20.50;11.00;;;;;;;27.01;22.19;100997.06;101535;1325;69155;-91
2023/01/05 06:12:25;;;;;;;14.70;9.30;;;;;;;27.01;22.56;101000.66;101509;1326;69177;-89
2023/01/05 06:14:50;;;;;;;16.50;10.10;;;;;;;27.03;22.35;101007.16;101754;1334;69185;-89
2023/01/05 06:17:16;;;;;;;15.40;9.90;;;;;;;27.04;22.58;101005.70;101695;1332;69192;-89
2023/01/05 06:19:41;;;;;;;14.50;9.90;;;;;;;27.04;22.46;101008.06;101662;1330;69116;-89
2023/01/05 06:22:07;;;;;;;15.10;8.70;;;;;;;27.04;22.55;101006.77;101554;1332;69306;-90
2023/01/05 06:24:32;;;;;;;16.10;9.50;;;;;;;27.05;22.92;101001.30;101491;1333;69676;-89
2023/01/05 06:26:58;;;;;;;14.90;10.40;;;;;;;27.06;23.35;100995.84;101529;1330;69156;-89
2023/01/05 06:29:23;;;;;;;16.00;10.60;;;;;;;27.04;23.18;100995.20;101474;1316;69146;-89
2023/01/05 06:31:49;;;;;;;15.60;11.40;;;;;;;27.00;23.15;100995.11;101343;1336;69377;-89
2023/01/05 06:34:14;;;;;;;16.50;10.70;;;;;;;26.97;23.03;100994.61;101573;1330;68432;-89
2023/01/05 06:36:40;;;;;;;17.70;11.40;;;;;;;26.94;22.96;100987.34;101493;1330;69246;-89
2023/01/05 06:39:05;;;;;;;18.90;11.80;;;;;;;26.91;22.86;100984.17;101706;1318;69139;-89
2023/01/05 06:41:31;;;;;;;20.90;12.50;;;;;;;26.88;22.87;100980.02;101750;1326;68890;-89
2023/01/05 06:43:56;;;;;;;28.80;20.20;;;;;;;26.86;22.72;100972.69;101489;1326;69275;-87
2023/01/05 06:46:22;;;;;;;34.70;21.90;;;;;;;26.84;22.47;100970.17;101470;1326;69458;-88
2023/01/05 06:48:47;;;;;;;31.40;20.30;;;;;;;26.84;22.63;100960.59;101443;1330;69274;-91
2023/01/05 06:51:13;;;;;;;53.10;37.40;;;;;;;26.81;22.68;100954.28;101544;1324;69285;-87
2023/01/05 06:53:38;;;;;;;57.90;41.60;;;;;;;26.74;22.68;100945.91;101549;1327;69241;-88
2023/01/05 06:56:04;;;;;;;60.60;44.30;;;;;;;26.67;22.67;100949.79;101590;1320;69146;-87
2023/01/05 06:58:30;;;;;;;55.50;36.00;;;;;;;26.61;22.58;100944.00;101455;1334;69241;-88
2023/01/05 07:00:55;;;;;;;56.60;35.70;;;;;;;26.54;22.72;100946.42;101369;1336;69252;-92
2023/01/05 07:03:23;;;;;;;68.40;42.40;;;;;;;26.50;22.84;100945.81;101390;1329;69194;-87
2023/01/05 07:05:48;;;;;;;66.60;42.60;;;;;;;26.46;22.75;100953.55;101593;1317;73694;-87
2023/01/05 07:08:14;;;;;;;68.00;48.20;;;;;;;26.41;23.04;100953.08;101592;1330;69111;-87
2023/01/05 07:10:39;;;;;;;56.40;41.10;;;;;;;26.38;22.67;100964.85;101526;1317;69184;-88
2023/01/05 07:13:05;;;;;;;48.10;34.50;;;;;;;26.34;22.80;100963.61;101627;1328;69242;-87
2023/01/05 07:15:30;;;;;;;43.40;28.20;;;;;;;26.32;22.74;100952.30;101525;1317;69280;-87
2023/01/05 07:17:56;;;;;;;34.00;25.30;;;;;;;26.30;22.59;100940.41;101557;1329;69134;-87
2023/01/05 07:20:21;;;;;;;29.20;20.70;;;;;;;26.26;22.99;100931.23;101557;1317;69255;-88
2023/01/05 07:22:47;;;;;;;27.20;19.30;;;;;;;26.25;22.86;100927.58;101442;1329;69360;-87
2023/01/05 07:25:12;;;;;;;32.00;18.40;;;;;;;26.28;22.81;100922.68;101704;1325;69274;-90
2023/01/05 07:27:37;;;;;;;31.90;18.20;;;;;;;26.34;22.86;100926.13;101778;1330;69078;-90
2023/01/05 07:30:04;;;;;;;26.50;20.00;;;;;;;26.40;23.10;100929.63;101791;1327;67019;-90
2023/01/05 07:32:29;;;;;;;37.80;29.90;;;;;;;26.42;23.04;100924.95;101848;1332;69639;-90
2023/01/05 07:34:54;;;;;;;60.50;43.00;;;;;;;26.43;22.98;100916.75;101782;1332;67769;-90
2023/01/05 07:37:20;;;;;;;70.80;50.90;;;;;;;26.41;22.87;100910.94;101858;1326;66936;-90
2023/01/05 07:39:45;;;;;;;62.70;44.70;;;;;;;26.36;22.86;100907.46;101905;1327;69005;-90
2023/01/05 07:42:12;;;;;;;44.00;31.70;;;;;;;26.33;22.83;100898.27;101727;1331;69228;-90
2023/01/05 07:44:37;;;;;;;49.50;35.50;;;;;;;26.33;22.98;100899.97;101798;1330;69054;-90
2023/01/05 07:47:03;;;;;;;42.70;32.20;;;;;;;26.36;22.77;100900.44;101681;1330;68963;-90
2023/01/05 07:49:29;;;;;;;43.20;30.30;;;;;;;26.40;22.99;100903.61;101671;1325;69223;-90
2023/01/05 07:51:54;;;;;;;48.50;26.80;;;;;;;26.45;23.19;100908.92;102576;1323;67362;-90
2023/01/05 07:54:20;;;;;;;34.80;24.30;;;;;;;26.47;23.29;100911.30;101533;1326;67831;-90
2023/01/05 07:56:46;;;;;;;31.40;22.40;;;;;;;26.50;23.11;100916.88;101595;1330;67771;-90
2023/01/05 07:59:11;;;;;;;28.50;20.00;;;;;;;26.52;23.01;100916.52;101705;1323;70059;-90
2023/01/05 08:01:37;;;;;;;27.80;19.40;;;;;;;26.55;23.08;100920.66;101633;1333;69245;-90
2023/01/05 08:04:02;;;;;;;24.70;17.80;;;;;;;26.58;23.25;100924.91;102033;1310;66805;-90
2023/01/05 08:06:28;;;;;;;29.50;17.70;;;;;;;26.60;23.32;100920.70;101670;1333;73544;-90
2023/01/05 08:08:54;;;;;;;27.70;16.20;;;;;;;26.61;23.18;100919.02;101580;1336;69298;-90
2023/01/05 08:11:20;;;;;;;23.90;14.80;;;;;;;26.62;23.20;100914.42;101627;1333;69206;-90
2023/01/05 08:13:58;;;;;;;23.50;14.80;;;;;;;26.63;22.89;100908.04;102111;1310;504118;-91
2023/01/05 08:16:24;;;;;;;29.70;14.10;;;;;;;26.65;23.16;100905.66;101775;1323;69188;-91
2023/01/05 08:18:50;;;;;;;25.50;13.30;;;;;;;26.66;23.09;100902.15;101844;1306;69096;-89
2023/01/05 08:21:15;;;;;;;27.30;13.40;;;;;;;26.66;22.85;100898.45;101678;1317;69229;-90
2023/01/05 08:23:41;;;;;;;23.10;13.00;;;;;;;26.68;22.89;100899.50;101875;1304;67007;-90
2023/01/05 08:26:09;;;;;;;20.00;12.50;;;;;;;26.69;22.92;100898.88;101891;1307;69317;-90
2023/01/05 08:28:37;;;;;;;20.00;12.00;;;;;;;26.70;23.10;100888.52;102081;1304;74479;-89
2023/01/05 08:31:23;;;;;;;25.00;11.90;;;;;;;26.71;22.81;100884.79;101976;1307;69059;-90
2023/01/05 08:33:48;;;;;;;18.80;11.70;;;;;;;26.74;22.88;100883.35;101936;1298;69309;-89
2023/01/05 08:36:17;;;;;;;20.00;11.50;;;;;;;26.76;23.00;100876.45;101591;1320;69220;-89
2023/01/05 08:38:46;;;;;;;20.20;11.20;;;;;;;26.78;22.84;100870.17;101931;1313;69055;-90
2023/01/05 08:41:23;;;;;;;14.70;10.40;;;;;;;26.80;22.89;100865.45;102023;1317;73568;-91
2023/01/05 08:43:53;;;;;;;18.40;11.00;;;;;;;26.82;22.63;100860.12;101758;1303;68995;-90
2023/01/05 08:46:23;;;;;;;15.00;10.30;;;;;;;26.83;22.74;100853.42;101875;1311;513505;-92
2023/01/05 08:48:55;;;;;;;16.60;10.30;;;;;;;26.85;22.84;100848.39;102119;1298;69195;-88
2023/01/05 08:51:21;;;;;;;22.00;10.60;;;;;;;26.86;22.84;100849.30;101797;1333;69326;-89
2023/01/05 08:53:50;;;;;;;18.90;10.00;;;;;;;26.88;22.78;100839.14;102134;1295;73522;-89
2023/01/05 08:56:16;;;;;;;15.20;9.10;;;;;;;26.90;22.92;100831.71;102094;1293;69300;-89
2023/01/05 08:58:41;;;;;;;15.50;9.20;;;;;;;26.92;22.73;100831.11;101984;1301;67850;-90
2023/01/05 09:01:08;;;;;;;14.80;9.90;;;;;;;26.95;22.66;100827.75;101814;1305;69170;-89
2023/01/05 09:03:34;;;;;;;17.50;9.90;;;;;;;26.97;22.71;100824.66;101594;1329;69322;-91
2023/01/05 09:06:02;;;;;;;15.60;9.60;;;;;;;26.99;22.65;100822.75;101651;1332;67907;-90
2023/01/05 09:08:31;;;;;;;12.60;9.10;;;;;;;27.01;22.70;100816.52;102119;1306;69136;-90
2023/01/05 09:11:17;;;;;;;13.30;8.80;;;;;;;27.04;22.65;100808.73;101953;1294;69213;-90
2023/01/05 09:13:49;;;;;;;16.20;9.10;;;;;;;27.06;22.61;100791.91;102073;1301;69274;-91
2023/01/05 09:16:17;;;;;;;12.80;9.10;;;;;;;27.07;22.55;100779.17;102123;1310;73397;-89
2023/01/05 09:18:46;;;;;;;16.10;9.20;;;;;;;27.09;22.73;100774.69;101800;1310;541821;-92
2023/01/05 09:21:12;;;;;;;14.50;8.90;;;;;;;27.11;22.68;100782.24;101809;1325;69150;-89
2023/01/05 09:23:38;;;;;;;17.40;9.60;;;;;;;27.13;22.76;100780.91;101583;1336;69236;-88
2023/01/05 09:26:04;;;;;;;13.90;8.50;;;;;;;27.14;22.65;100772.16;101919;1314;67167;-89
2023/01/05 09:28:35;;;;;;;17.20;9.10;;;;;;;27.15;22.53;100764.60;102067;1317;67548;-90
2023/01/05 09:31:06;;;;;;;17.30;8.90;;;;;;;27.14;22.66;100751.61;101901;1302;69107;-90
2023/01/05 09:33:37;;;;;;;19.10;9.20;;;;;;;27.15;22.68;100748.02;101864;1310;69129;-87
2023/01/05 09:36:02;;;;;;;16.10;8.70;;;;;;;27.16;22.78;100745.11;101710;1333;69240;-90
2023/01/05 09:38:31;;;;;;;21.00;8.80;;;;;;;27.17;22.76;100736.36;101682;1298;502694;-90
2023/01/05 09:41:02;;;;;;;13.20;8.50;;;;;;;27.19;22.84;100732.15;102024;1318;76049;-90
2023/01/05 09:43:32;;;;;;;26.20;15.70;;;;;;;27.21;22.88;100739.47;101866;1301;494530;-87
2023/01/05 09:45:57;;;;;;;37.60;25.70;;;;;;;27.23;22.84;100733.44;102014;1328;69128;-89
2023/01/05 09:48:26;;;;;;;36.90;25.10;;;;;;;27.26;23.00;100728.98;102317;1328;69229;-91
2023/01/05 09:50:56;;;;;;;42.60;34.70;;;;;;;27.29;22.91;100715.74;102009;1328;458527;-91
2023/01/05 09:53:25;;;;;;;45.90;35.00;;;;;;;27.32;22.83;100707.86;102277;1309;73918;-90
2023/01/05 09:55:51;;;;;;;41.90;32.40;;;;;;;27.35;22.86;100690.08;102219;1319;69190;-90
2023/01/05 09:58:19;;;;;;;35.60;27.80;;;;;;;27.37;23.07;100679.60;102033;1327;68050;-89
2023/01/05 10:00:52;;;;;;;31.50;21.10;;;;;;;27.36;22.87;100670.41;101865;1324;67667;-89
2023/01/05 10:03:20;;;;;;;21.80;18.00;;;;;;;27.34;22.97;100663.27;101943;1330;69191;-91
2023/01/05 10:05:45;;;;;;;23.10;17.40;;;;;;;27.33;22.90;100658.88;101852;1321;73463;-88
2023/01/05 10:08:17;;;;;;;26.20;17.30;;;;;;;27.31;22.82;100654.73;101956;1333;66901;-89
2023/01/05 10:14:10;;;;;;;24.50;14.90;;;;;;;27.30;22.85;100660.80;102004;1327;68921;-89
2023/01/05 10:16:35;;;;;;;20.20;14.50;;;;;;;27.32;23.04;100655.73;101914;1332;69107;-89
2023/01/05 10:19:01;;;;;;;25.00;15.10;;;;;;;27.35;23.00;100652.41;101910;1329;69281;-90
2023/01/05 10:21:35;;;;;;;18.60;12.80;;;;;;;27.36;22.90;100650.31;101847;1333;69122;-88
2023/01/05 10:24:15;;;;;;;19.40;13.20;;;;;;;27.38;22.95;100648.63;101599;1331;69133;-89
2023/01/05 10:27:13;;;;;;;18.60;12.80;;;;;;;27.37;23.09;100626.84;101628;1330;69068;-90
2023/01/05 10:29:45;;;;;;;17.10;12.30;;;;;;;27.36;23.04;100617.61;101775;1329;69177;-89
2023/01/05 10:32:37;;;;;;;18.50;11.80;;;;;;;27.35;23.08;100617.80;101736;1323;73699;-90
2023/01/05 10:35:21;;;;;;;19.30;12.10;;;;;;;27.33;23.09;100622.09;102156;1310;66917;-89
2023/01/05 10:38:11;;;;;;;16.60;11.90;;;;;;;27.32;23.05;100617.57;102237;1329;69211;-90
2023/01/05 10:41:22;;;;;;;17.20;11.50;;;;;;;27.31;23.30;100607.45;102186;1307;67130;-90
